createdAt,value
2023-05-12T00:01:43.416Z,39.97
2023-05-12T00:04:12.950Z,39.87
2023-05-12T00:06:49.779Z,39.63
2023-05-12T00:09:18.455Z,39.87
2023-05-12T00:11:48.946Z,39.92
2023-05-12T00:14:16.824Z,39.82
2023-05-12T00:16:45.297Z,39.92
2023-05-12T00:19:23.258Z,39.93
2023-05-12T00:21:52.024Z,40.05
2023-05-12T00:24:21.978Z,39.89
2023-05-12T00:26:53.128Z,39.98
2023-05-12T00:29:20.993Z,39.54
2023-05-12T00:31:48.830Z,39.65
2023-05-12T00:34:17.780Z,39.62
2023-05-12T00:36:45.706Z,39.59
2023-05-12T00:39:14.650Z,39.29
2023-05-12T00:41:44.671Z,39.41
2023-05-12T00:44:12.886Z,39.64
2023-05-12T00:46:41.156Z,39.42
2023-05-12T00:49:09.391Z,39.52
2023-05-12T00:51:39.961Z,39.38
2023-05-12T00:54:08.688Z,39.25
2023-05-12T00:56:42.713Z,39.37
2023-05-12T00:59:13.337Z,39.48
2023-05-12T01:01:44.716Z,39.38
2023-05-12T01:04:15.059Z,39.21
2023-05-12T01:06:56.054Z,39.50
2023-05-12T01:09:24.053Z,39.21
2023-05-12T01:11:52.147Z,39.13
2023-05-12T01:14:21.477Z,39.37
2023-05-12T01:16:54.266Z,39.07
2023-05-12T01:19:37.731Z,38.87
2023-05-12T01:22:09.683Z,39.34
2023-05-12T01:25:04.583Z,39.35
2023-05-12T01:27:35.020Z,39.57
2023-05-12T01:30:05.337Z,39.42
2023-05-12T01:32:36.641Z,39.23
2023-05-12T01:35:05.792Z,39.58
2023-05-12T01:37:34.741Z,39.73
2023-05-12T01:40:10.531Z,39.73
2023-05-12T01:42:45.270Z,39.52
2023-05-12T01:45:13.800Z,39.38
2023-05-12T01:47:41.797Z,39.70
2023-05-12T01:50:11.194Z,39.64
2023-05-12T01:52:39.947Z,39.44
2023-05-12T01:55:12.344Z,39.51
2023-05-12T01:57:53.311Z,39.71
2023-05-12T02:00:22.917Z,39.86
2023-05-12T02:02:56.583Z,40.10
2023-05-12T02:05:24.739Z,40.20
2023-05-12T02:07:54.304Z,40.16
2023-05-12T02:10:22.937Z,40.13
2023-05-12T02:12:52.429Z,39.70
2023-05-12T02:15:20.600Z,40.39
2023-05-12T02:17:50.560Z,40.04
2023-05-12T02:20:19.509Z,40.17
2023-05-12T02:22:47.609Z,40.43
2023-05-12T02:25:15.589Z,40.63
2023-05-12T02:27:45.178Z,40.69
2023-05-12T02:30:14.414Z,40.56
2023-05-12T02:32:43.377Z,40.59
2023-05-12T02:35:11.409Z,40.85
2023-05-12T02:37:41.157Z,40.96
2023-05-12T02:40:10.131Z,40.56
2023-05-12T02:42:38.706Z,40.88
2023-05-12T02:45:12.306Z,40.80
2023-05-12T02:47:40.738Z,40.97
2023-05-12T02:50:09.772Z,40.57
2023-05-12T02:52:37.624Z,40.70
2023-05-12T02:55:05.763Z,41.07
2023-05-12T02:57:34.765Z,40.87
2023-05-12T03:00:09.620Z,40.69
2023-05-12T03:02:44.826Z,40.40
2023-05-12T03:05:15.906Z,40.23
2023-05-12T03:07:43.827Z,40.54
2023-05-12T03:10:12.104Z,40.62
2023-05-12T03:12:40.360Z,40.26
2023-05-12T03:15:09.159Z,40.41
2023-05-12T03:17:37.235Z,40.48
2023-05-12T03:20:06.311Z,40.41
2023-05-12T03:22:34.369Z,40.16
2023-05-12T03:25:04.031Z,40.06
2023-05-12T03:27:36.257Z,39.84
2023-05-12T03:30:06.016Z,40.02
2023-05-12T03:32:39.402Z,39.94
2023-05-12T03:35:10.159Z,39.88
2023-05-12T03:37:38.391Z,39.98
2023-05-12T03:40:08.090Z,40.32
2023-05-12T03:42:35.908Z,40.39
2023-05-12T03:45:04.810Z,40.26
2023-05-12T03:47:34.889Z,40.40
2023-05-12T03:50:02.788Z,40.41
2023-05-12T03:52:31.001Z,40.58
2023-05-12T03:54:59.000Z,40.34
2023-05-12T03:57:26.915Z,40.48
2023-05-12T03:59:55.600Z,40.45
2023-05-12T04:02:23.785Z,40.76
2023-05-12T04:04:52.118Z,40.75
2023-05-12T04:07:21.348Z,40.66
2023-05-12T04:09:51.451Z,40.87
2023-05-12T04:12:19.291Z,40.97
2023-05-12T04:14:48.332Z,41.43
2023-05-12T04:17:18.802Z,41.07
2023-05-12T04:19:47.132Z,41.06
2023-05-12T04:22:14.997Z,41.06
2023-05-12T04:24:42.775Z,41.49
2023-05-12T04:27:10.756Z,41.57
2023-05-12T04:29:38.938Z,41.45
2023-05-12T04:32:07.676Z,41.23
2023-05-12T04:34:36.219Z,41.26
2023-05-12T04:37:04.244Z,41.64
2023-05-12T04:39:31.987Z,41.12
2023-05-12T04:42:03.321Z,40.98
2023-05-12T04:44:34.170Z,41.28
2023-05-12T04:47:02.178Z,41.20
2023-05-12T04:49:31.607Z,41.29
2023-05-12T04:51:59.676Z,40.95
2023-05-12T04:54:27.472Z,41.10
2023-05-12T04:56:56.056Z,40.86
2023-05-12T04:59:24.397Z,40.61
2023-05-12T05:01:54.315Z,40.84
2023-05-12T05:04:22.537Z,41.08
2023-05-12T05:06:55.786Z,40.94
2023-05-12T05:09:24.587Z,40.83
2023-05-12T05:11:52.557Z,40.67
2023-05-12T05:14:20.665Z,40.56
2023-05-12T05:16:48.905Z,40.56
2023-05-12T05:19:22.858Z,40.69
2023-05-12T05:22:04.142Z,41.39
2023-05-12T05:24:32.057Z,41.51
2023-05-12T05:26:59.850Z,41.25
2023-05-12T05:29:31.993Z,41.51
2023-05-12T05:32:15.699Z,41.25
2023-05-12T05:34:45.093Z,41.53
2023-05-12T05:37:13.254Z,41.67
2023-05-12T05:39:44.001Z,41.78
2023-05-12T05:42:12.327Z,41.87
2023-05-12T05:44:53.756Z,42.08
2023-05-12T05:47:24.545Z,41.35
2023-05-12T05:49:52.910Z,41.43
2023-05-12T05:52:24.636Z,41.16
2023-05-12T05:54:52.750Z,40.88
2023-05-12T05:57:23.634Z,40.99
2023-05-12T05:59:53.637Z,40.77
2023-05-12T06:02:24.954Z,41.20
2023-05-12T06:05:00.406Z,43.44
2023-05-12T06:07:29.614Z,40.92
2023-05-12T06:10:03.332Z,40.69
2023-05-12T06:12:33.293Z,41.46
2023-05-12T06:15:01.860Z,41.25
2023-05-12T06:17:32.044Z,40.85
2023-05-12T06:20:01.109Z,40.62
2023-05-12T06:22:31.439Z,40.79
2023-05-12T06:25:02.753Z,40.37
2023-05-12T06:27:38.063Z,40.72
2023-05-12T06:30:17.014Z,40.97
2023-05-12T06:32:48.109Z,40.95
2023-05-12T06:35:17.255Z,41.22
2023-05-12T06:37:49.922Z,41.67
2023-05-12T06:40:18.837Z,41.21
2023-05-12T06:42:48.239Z,41.01
2023-05-12T06:45:21.650Z,41.08
2023-05-12T06:47:53.519Z,41.22
2023-05-12T06:50:25.354Z,41.03
2023-05-12T06:52:53.627Z,41.01
2023-05-12T06:55:24.960Z,40.75
2023-05-12T06:57:58.379Z,40.74
2023-05-12T07:03:02.023Z,40.54
2023-05-12T07:05:34.468Z,40.28
2023-05-12T07:08:12.711Z,40.47
2023-05-12T07:10:41.333Z,40.22
2023-05-12T07:13:16.869Z,40.19
2023-05-12T07:15:49.457Z,39.99
2023-05-12T07:18:20.620Z,40.37
2023-05-12T07:20:51.847Z,40.66
2023-05-12T07:23:20.969Z,40.45
2023-05-12T07:25:50.138Z,40.11
2023-05-12T07:28:18.922Z,39.77
2023-05-12T07:30:47.487Z,39.80
2023-05-12T07:33:15.997Z,39.72
2023-05-12T07:35:47.066Z,39.67
2023-05-12T07:38:16.376Z,38.62
2023-05-12T07:40:48.101Z,38.98
2023-05-12T07:43:20.001Z,39.01
2023-05-12T07:45:55.017Z,39.19
2023-05-12T07:48:25.701Z,38.73
2023-05-12T07:50:55.660Z,38.66
2023-05-12T07:53:24.026Z,38.82
2023-05-12T07:55:53.928Z,38.98
2023-05-12T07:58:23.627Z,38.74
2023-05-12T08:01:20.279Z,38.39
2023-05-12T08:06:23.005Z,38.39
2023-05-12T08:08:51.277Z,38.66
2023-05-12T08:11:19.547Z,38.15
2023-05-12T08:13:49.045Z,38.46
2023-05-12T08:16:21.425Z,38.37
2023-05-12T08:19:11.501Z,38.26
2023-05-12T08:21:48.333Z,38.69
2023-05-12T08:24:17.406Z,38.58
2023-05-12T08:26:45.304Z,38.40
2023-05-12T08:29:13.414Z,38.55
2023-05-12T08:31:44.592Z,38.44
2023-05-12T08:34:13.216Z,38.05
2023-05-12T08:36:52.735Z,37.72
2023-05-12T08:39:23.829Z,37.99
2023-05-12T08:42:21.993Z,37.58
2023-05-12T08:48:31.017Z,38.90
2023-05-12T08:52:07.038Z,38.29
2023-05-12T08:55:57.016Z,37.37
2023-05-12T09:11:39.666Z,36.12
2023-05-12T09:15:11.670Z,35.23
2023-05-12T09:21:33.012Z,35.01
2023-05-12T09:24:44.783Z,35.96
2023-05-12T09:27:42.413Z,35.36
2023-05-12T09:30:44.289Z,35.95
2023-05-12T09:33:51.477Z,35.74
2023-05-12T09:45:13.695Z,37.19
2023-05-12T09:48:47.038Z,36.92
2023-05-12T09:51:28.702Z,37.42
2023-05-12T09:58:57.168Z,37.16
2023-05-12T10:03:01.238Z,37.47
2023-05-12T10:07:16.588Z,37.43
2023-05-12T10:11:15.901Z,37.52
2023-05-12T10:18:08.345Z,37.18
2023-05-12T10:26:57.364Z,36.98
2023-05-12T10:29:31.972Z,37.18
2023-05-12T10:35:49.491Z,37.91
2023-05-12T10:42:26.684Z,37.95
2023-05-12T10:51:01.829Z,38.14
2023-05-12T10:55:58.142Z,38.25
2023-05-12T10:57:28.988Z,38.91
2023-05-12T11:04:10.584Z,39.17
2023-05-12T11:06:40.832Z,39.77
2023-05-12T11:09:09.555Z,39.62
2023-05-12T11:11:38.474Z,39.00
2023-05-12T11:14:06.909Z,39.00
2023-05-12T11:16:35.056Z,38.90
2023-05-12T11:19:06.520Z,38.90
2023-05-12T11:21:34.672Z,39.02
2023-05-12T11:24:06.333Z,38.79
2023-05-12T11:26:37.541Z,38.93
2023-05-12T11:29:09.375Z,38.92
2023-05-12T11:31:39.692Z,39.05
2023-05-12T11:34:13.044Z,39.00
2023-05-12T11:36:45.934Z,38.84
2023-05-12T11:39:17.737Z,38.66
2023-05-12T11:41:48.370Z,38.64
2023-05-12T11:44:27.048Z,38.66
2023-05-12T11:47:02.609Z,38.95
2023-05-12T11:49:47.674Z,38.24
2023-05-12T11:52:18.855Z,38.64
2023-05-12T11:55:01.575Z,38.74
2023-05-12T11:57:39.931Z,38.98
2023-05-12T12:00:12.275Z,38.85
2023-05-12T12:02:43.718Z,39.16
2023-05-12T12:05:19.076Z,39.66
2023-05-12T12:07:52.670Z,39.82
2023-05-12T12:13:24.961Z,40.03
2023-05-12T12:15:56.744Z,39.89
2023-05-12T12:18:31.075Z,40.03
2023-05-12T12:21:09.812Z,40.36
2023-05-12T12:23:58.229Z,40.37
2023-05-12T12:26:37.726Z,40.51
2023-05-12T12:29:09.043Z,40.51
2023-05-12T12:31:48.100Z,40.95
2023-05-12T12:37:36.591Z,40.91
2023-05-12T12:40:09.448Z,40.82
2023-05-12T12:46:04.224Z,41.00
2023-05-12T12:55:08.419Z,43.20
2023-05-12T12:57:41.459Z,42.93
2023-05-12T13:00:12.849Z,42.54
2023-05-12T13:02:43.726Z,42.59
2023-05-12T13:05:25.830Z,42.55
2023-05-12T13:08:22.753Z,42.48
2023-05-12T13:11:03.454Z,42.71
2023-05-12T13:13:37.010Z,42.57
2023-05-12T13:18:52.016Z,42.90
2023-05-12T13:21:44.324Z,42.77
2023-05-12T13:24:37.123Z,42.79
2023-05-12T13:27:15.945Z,42.47
2023-05-12T13:34:01.406Z,42.46
2023-05-12T13:36:35.102Z,42.61
2023-05-12T13:39:14.375Z,42.64
2023-05-12T13:41:49.962Z,43.02
2023-05-12T13:44:24.191Z,43.18
2023-05-12T13:47:08.256Z,43.13
2023-05-12T13:49:40.064Z,43.32
2023-05-12T13:52:17.690Z,43.45
2023-05-12T13:54:49.200Z,43.55
2023-05-12T13:57:19.929Z,43.54
2023-05-12T13:59:55.017Z,43.60
2023-05-12T14:02:48.714Z,43.68
2023-05-12T14:05:31.899Z,43.83
2023-05-12T14:08:17.605Z,43.83
2023-05-12T14:10:49.184Z,44.12
2023-05-12T14:13:21.906Z,44.46
2023-05-12T14:15:56.395Z,43.95
2023-05-12T14:18:45.099Z,43.96
2023-05-12T14:21:19.545Z,43.62
2023-05-12T14:23:51.092Z,43.71
2023-05-12T14:26:20.340Z,43.53
2023-05-12T14:28:57.269Z,43.51
2023-05-12T14:31:32.690Z,43.50
2023-05-12T14:34:01.770Z,43.66
2023-05-12T14:36:45.129Z,44.41
2023-05-12T14:39:18.984Z,44.46
2023-05-12T14:41:50.273Z,44.63
2023-05-12T14:44:22.276Z,45.69
2023-05-12T14:46:57.457Z,47.47
2023-05-12T14:49:28.401Z,47.48
2023-05-12T14:52:04.412Z,48.73
2023-05-12T14:54:36.428Z,49.90
2023-05-12T14:57:08.215Z,50.23
2023-05-12T14:59:57.119Z,50.60
2023-05-12T15:02:35.550Z,50.22
2023-05-12T15:05:10.560Z,50.13
2023-05-12T15:07:43.120Z,49.87
2023-05-12T15:10:14.161Z,50.08
2023-05-12T15:12:45.792Z,49.84
2023-05-12T15:15:19.782Z,49.60
2023-05-12T15:17:57.724Z,50.64
2023-05-12T15:20:46.092Z,50.47
2023-05-12T15:23:16.030Z,50.83
2023-05-12T15:26:33.242Z,50.26
2023-05-12T15:29:27.421Z,50.31
2023-05-12T15:31:58.953Z,50.95
2023-05-12T15:34:43.899Z,51.13
2023-05-12T15:38:31.068Z,51.74
2023-05-12T15:42:12.560Z,51.02
2023-05-12T15:45:02.520Z,51.65
2023-05-12T15:47:34.533Z,51.61
2023-05-12T15:50:06.805Z,51.16
2023-05-12T15:55:58.875Z,49.82
2023-05-12T16:42:12.156Z,49.59
2023-05-12T16:44:41.179Z,49.69
2023-05-12T16:47:11.976Z,49.60
2023-05-12T16:49:40.918Z,49.75
2023-05-12T16:52:12.898Z,50.18
2023-05-12T16:54:42.787Z,49.91
2023-05-12T16:57:11.410Z,49.52
2023-05-12T16:59:40.062Z,49.46
2023-05-12T17:02:08.845Z,48.79
2023-05-12T17:04:38.005Z,49.91
2023-05-12T17:07:08.848Z,48.84
2023-05-12T17:09:37.370Z,48.85
2023-05-12T17:15:24.979Z,48.87
2023-05-12T17:17:53.866Z,48.20
2023-05-12T17:20:23.499Z,47.83
2023-05-12T17:22:52.453Z,47.63
2023-05-12T17:25:22.537Z,47.30
2023-05-12T17:27:51.953Z,46.92
2023-05-12T17:30:20.567Z,47.04
2023-05-12T17:32:49.350Z,46.84
2023-05-12T17:35:19.303Z,46.91
2023-05-12T17:37:54.143Z,46.26
2023-05-12T17:40:23.479Z,46.40
2023-05-12T17:42:55.745Z,46.17
2023-05-12T17:45:24.625Z,46.73
2023-05-12T17:47:54.157Z,46.32
2023-05-12T17:50:26.075Z,46.33
2023-05-12T17:52:55.752Z,46.47
2023-05-12T17:55:24.380Z,46.50
2023-05-12T17:57:53.184Z,46.78
2023-05-12T18:00:22.078Z,46.74
2023-05-12T18:02:50.671Z,46.65
2023-05-12T18:05:19.795Z,46.75
2023-05-12T18:07:48.343Z,46.69
2023-05-12T18:10:20.204Z,46.42
2023-05-12T18:12:53.738Z,46.46
2023-05-12T18:15:32.078Z,46.41
2023-05-12T18:18:01.358Z,46.23
2023-05-12T18:20:30.063Z,46.03
2023-05-12T18:22:58.485Z,46.09
2023-05-12T18:25:29.612Z,46.00
2023-05-12T18:27:58.424Z,45.92
2023-05-12T18:30:26.973Z,45.72
2023-05-12T18:32:59.086Z,45.87
2023-05-12T18:35:28.282Z,45.98
2023-05-12T18:37:57.006Z,46.07
2023-05-12T18:40:28.686Z,45.63
2023-05-12T18:43:01.176Z,44.79
2023-05-12T18:45:30.679Z,44.57
2023-05-12T18:47:59.288Z,44.33
2023-05-12T18:50:28.312Z,44.59
2023-05-12T18:52:58.484Z,43.96
2023-05-12T18:55:30.486Z,44.01
2023-05-12T18:57:59.760Z,43.78
2023-05-12T19:00:33.914Z,43.37
2023-05-12T19:03:05.987Z,43.41
2023-05-12T19:05:39.810Z,43.22
2023-05-12T19:08:20.345Z,42.25
2023-05-12T19:10:52.105Z,42.68
2023-05-12T19:13:29.312Z,42.19
2023-05-12T19:16:03.122Z,42.40
2023-05-12T19:18:36.871Z,42.98
2023-05-12T19:21:06.552Z,42.73
2023-05-12T19:24:00.086Z,42.48
2023-05-12T19:26:39.802Z,42.73
2023-05-12T19:29:08.938Z,42.37
2023-05-12T19:34:37.515Z,42.30
2023-05-12T19:37:08.828Z,41.66
2023-05-12T19:39:40.393Z,41.92
2023-05-12T19:42:12.867Z,41.80
2023-05-12T19:44:41.742Z,42.10
2023-05-12T19:47:12.996Z,42.10
2023-05-12T19:49:44.524Z,41.84
2023-05-12T19:52:15.185Z,42.21
2023-05-12T19:54:46.595Z,42.10
2023-05-12T19:57:14.960Z,42.82
2023-05-12T19:59:43.271Z,42.33
2023-05-12T20:02:14.479Z,41.84
2023-05-12T20:04:43.560Z,41.72
2023-05-12T20:07:12.651Z,41.83
2023-05-12T20:09:41.394Z,41.82
2023-05-12T20:12:10.211Z,41.47
2023-05-12T20:14:38.746Z,41.42
2023-05-12T20:17:08.505Z,41.25
2023-05-12T20:19:37.944Z,40.89
2023-05-12T20:22:06.656Z,40.78
2023-05-12T20:24:35.262Z,40.65
2023-05-12T20:27:03.893Z,40.90
2023-05-12T20:29:34.083Z,40.92
2023-05-12T20:32:02.566Z,40.75
2023-05-12T20:34:31.162Z,40.82
2023-05-12T20:37:03.799Z,41.85
2023-05-12T20:39:32.754Z,41.27
2023-05-12T20:42:07.218Z,41.28
2023-05-12T20:44:37.279Z,40.96
2023-05-12T20:47:06.799Z,41.11
2023-05-12T20:49:38.436Z,40.58
2023-05-12T20:52:08.067Z,40.59
2023-05-12T20:54:36.926Z,40.07
2023-05-12T20:57:08.402Z,39.75
2023-05-12T20:59:37.132Z,39.67
2023-05-12T21:02:08.608Z,39.66
2023-05-12T21:04:37.212Z,39.61
2023-05-12T21:07:07.632Z,39.37
2023-05-12T21:09:42.754Z,39.58
2023-05-12T21:12:11.087Z,39.84
2023-05-12T21:14:43.700Z,39.22
2023-05-12T21:17:12.743Z,39.66
2023-05-12T21:19:42.053Z,39.95
2023-05-12T21:22:11.475Z,40.22
2023-05-12T21:24:40.287Z,40.41
2023-05-12T21:27:08.851Z,40.27
2023-05-12T21:29:37.470Z,40.47
2023-05-12T21:32:06.497Z,40.93
2023-05-12T21:34:36.238Z,41.06
2023-05-12T21:37:04.832Z,41.27
2023-05-12T21:39:34.454Z,41.72
2023-05-12T21:42:03.532Z,41.79
2023-05-12T21:44:33.897Z,41.96
2023-05-12T21:47:04.833Z,42.24
2023-05-12T21:49:33.588Z,42.26
2023-05-12T21:52:02.157Z,42.62
2023-05-12T21:54:33.780Z,42.55
2023-05-12T21:57:03.218Z,42.35
2023-05-12T21:59:33.107Z,42.27
2023-05-12T22:02:01.569Z,42.16
2023-05-12T22:04:33.880Z,42.07
2023-05-12T22:07:03.032Z,42.18
2023-05-12T22:09:31.609Z,42.16
2023-05-12T22:12:00.509Z,42.28
2023-05-12T22:14:29.213Z,42.13
2023-05-12T22:16:58.498Z,42.08
2023-05-12T22:19:28.707Z,42.20
2023-05-12T22:21:58.756Z,42.40
2023-05-12T22:24:27.620Z,42.44
2023-05-12T22:26:56.698Z,42.83
2023-05-12T22:29:26.715Z,42.72
2023-05-12T22:31:55.557Z,42.96
2023-05-12T22:34:28.260Z,42.54
2023-05-12T22:37:06.034Z,42.54
2023-05-12T22:39:34.568Z,42.81
2023-05-12T22:42:05.262Z,42.38
2023-05-12T22:44:36.028Z,42.19
2023-05-12T22:47:05.589Z,42.54
2023-05-12T22:49:35.177Z,42.80
2023-05-12T22:52:03.937Z,42.60
2023-05-12T22:54:32.751Z,42.52
2023-05-12T22:57:04.208Z,42.63
2023-05-12T22:59:32.871Z,42.77
2023-05-12T23:02:02.438Z,42.94
2023-05-12T23:04:32.320Z,42.85
2023-05-12T23:07:04.166Z,43.00
2023-05-12T23:09:35.901Z,42.98
2023-05-12T23:12:05.364Z,43.02
2023-05-12T23:14:34.096Z,43.12
2023-05-12T23:17:03.946Z,43.44
2023-05-12T23:19:32.318Z,43.22
2023-05-12T23:22:01.230Z,43.01
2023-05-12T23:24:30.312Z,43.05
2023-05-12T23:27:01.635Z,43.13
2023-05-12T23:29:30.186Z,43.23
2023-05-12T23:32:02.488Z,43.66
2023-05-12T23:34:36.715Z,43.52
2023-05-12T23:37:05.393Z,43.64
2023-05-12T23:39:34.128Z,43.64
2023-05-12T23:42:04.108Z,43.99
2023-05-12T23:44:35.640Z,43.52
2023-05-12T23:47:04.335Z,43.86
2023-05-12T23:49:33.946Z,43.73
2023-05-12T23:52:08.732Z,43.20
2023-05-12T23:54:40.893Z,43.39
2023-05-12T23:57:41.383Z,43.46
